Terminal Aerodrome Forecast
Issued by NWS

Home | Current Version | Previous Version | Text Only | Print | Product List | Glossary On
Versions: 1 2 3 4 5 6 7 8 9 10 11 12
000
FTUS44 KSJT 270520
TAFBBD
TAF
KBBD 270520Z 2706/2806 VRB04KT P6SM SCT035 BKN200
     FM271000 11003KT 5SM BR BKN020
     FM271700 11004KT P6SM SCT030
      AMD NOT SKED=

USA.gov is the U.S. government's official web portal to all federal, state and local government web resources and services.